Time;durP1;ratioP1;P1;durP2;ratioP2;P2;SDS_P1;SDS_P2;PMS_P1;PMS_P2;Temp;Humidity;BMP_temperature;BMP_pressure;BME280_temperature;BME280_humidity;BME280_pressure;Samples;Min_cycle;Max_cycle;Signal;HPM_P1;HPM_P2
2021/08/31 00:00:35;;;;;;;8.70;7.90;;;;;;;15.91;81.29;99865.19;118351;1193;21841;-81
2021/08/31 00:03:04;;;;;;;9.20;8.40;;;;;;;15.92;81.29;99865.39;118204;1198;21885;-80
2021/08/31 00:05:34;;;;;;;10.50;9.40;;;;;;;15.93;81.25;99864.52;117339;1201;21968;-81
2021/08/31 00:08:04;;;;;;;10.00;9.10;;;;;;;15.91;81.13;99864.25;117307;1201;22134;-81
2021/08/31 00:10:34;;;;;;;11.60;10.50;;;;;;;15.90;81.21;99865.44;117392;1199;21866;-83
2021/08/31 00:13:04;;;;;;;11.40;10.40;;;;;;;15.91;81.27;99864.30;117386;1201;21874;-81
2021/08/31 00:15:35;;;;;;;10.20;9.20;;;;;;;15.91;81.24;99861.35;117194;1201;21751;-81
2021/08/31 00:18:08;;;;;;;10.70;9.80;;;;;;;15.92;81.12;99866.83;117559;1199;21899;-80
2021/08/31 00:20:40;;;;;;;12.20;11.20;;;;;;;15.90;81.28;99863.52;117463;1199;21864;-81
2021/08/31 00:23:09;;;;;;;11.90;11.00;;;;;;;15.89;81.21;99859.77;118073;1195;22235;-81
2021/08/31 00:25:39;;;;;;;10.60;9.70;;;;;;;15.89;81.23;99854.10;118346;1191;21773;-81
2021/08/31 00:28:08;;;;;;;10.20;9.40;;;;;;;15.92;81.33;99855.35;118270;1195;21833;-80
2021/08/31 00:30:37;;;;;;;9.60;8.90;;;;;;;15.90;81.26;99848.28;118327;1195;21819;-81
2021/08/31 00:33:06;;;;;;;8.60;7.90;;;;;;;15.92;81.31;99851.39;118352;1195;21803;-81
2021/08/31 00:35:36;;;;;;;9.10;8.20;;;;;;;15.92;81.21;99854.00;118322;1192;21801;-81
2021/08/31 00:38:05;;;;;;;8.80;8.20;;;;;;;15.95;81.15;99857.55;118383;1192;21830;-81
2021/08/31 00:40:34;;;;;;;10.10;8.60;;;;;;;15.94;81.24;99859.15;118214;1194;21876;-80
2021/08/31 00:43:05;;;;;;;9.40;8.50;;;;;;;15.95;81.23;99859.88;118211;1195;21856;-81
2021/08/31 00:45:34;;;;;;;8.60;7.80;;;;;;;15.95;81.22;99854.84;118259;1195;21834;-81
2021/08/31 00:48:04;;;;;;;8.20;7.60;;;;;;;15.95;81.17;99857.30;118218;1194;21799;-80
2021/08/31 00:50:33;;;;;;;9.70;8.90;;;;;;;15.94;81.21;99855.05;118158;1197;21813;-80
2021/08/31 00:53:03;;;;;;;8.10;7.50;;;;;;;15.96;81.20;99858.00;118188;1197;22293;-81
2021/08/31 00:55:32;;;;;;;8.80;8.10;;;;;;;15.93;81.17;99856.78;118183;1197;22299;-81
2021/08/31 00:58:01;;;;;;;8.90;8.00;;;;;;;15.93;81.10;99853.17;118040;1193;21858;-81
2021/08/31 01:00:31;;;;;;;9.10;8.40;;;;;;;15.90;81.16;99845.24;118206;1197;21812;-81
2021/08/31 01:03:00;;;;;;;10.10;8.20;;;;;;;15.89;81.11;99848.86;118178;1192;21813;-81
2021/08/31 01:05:32;;;;;;;9.00;8.10;;;;;;;15.89;81.18;99846.27;118158;1195;21833;-81
2021/08/31 01:08:02;;;;;;;;;;;;;;;15.89;81.17;99844.73;118187;1194;21850;-81
2021/08/31 01:10:32;;;;;;;9.30;8.50;;;;;;;15.83;81.44;99855.00;118345;1192;22080;-80
2021/08/31 01:13:01;;;;;;;9.20;8.30;;;;;;;15.80;81.45;99856.48;118166;1197;21816;-81
2021/08/31 01:15:31;;;;;;;8.50;7.70;;;;;;;15.82;81.41;99859.61;118186;1195;22209;-80
2021/08/31 01:18:20;;;;;;;10.20;9.40;;;;;;;15.84;81.41;99860.54;118167;1196;21861;-80
2021/08/31 01:20:53;;;;;;;8.80;8.10;;;;;;;15.87;81.34;99868.09;118112;1195;21810;-81
2021/08/31 01:23:24;;;;;;;9.10;8.30;;;;;;;15.89;81.42;99867.95;118208;1196;21875;-81
2021/08/31 01:25:59;;;;;;;9.10;8.30;;;;;;;15.88;81.45;99865.42;118111;1197;21865;-80
2021/08/31 01:28:32;;;;;;;7.80;7.10;;;;;;;15.91;81.35;99867.27;118199;1189;21820;-80
2021/08/31 01:31:03;;;;;;;7.40;6.80;;;;;;;15.88;81.31;99861.95;117863;1196;21852;-80
2021/08/31 01:33:33;;;;;;;10.20;9.20;;;;;;;15.90;81.34;99862.05;118104;1198;22239;-78
2021/08/31 01:36:20;;;;;;;8.90;8.10;;;;;;;15.88;81.33;99856.13;118172;1194;21771;-80
2021/08/31 01:38:51;;;;;;;8.60;7.90;;;;;;;15.90;81.25;99864.78;118032;1194;21841;-79
2021/08/31 01:41:22;;;;;;;8.30;6.70;;;;;;;15.87;81.30;99857.06;118121;1197;21898;-80
2021/08/31 01:43:52;;;;;;;8.10;7.30;;;;;;;15.87;81.27;99863.33;117898;1200;21866;-79
2021/08/31 01:46:21;;;;;;;7.90;7.30;;;;;;;15.86;81.35;99862.31;117463;1201;22042;-79
2021/08/31 01:48:50;;;;;;;7.80;7.20;;;;;;;15.88;81.31;99863.75;117993;1198;21848;-80
2021/08/31 01:51:19;;;;;;;7.40;6.80;;;;;;;15.90;81.13;99866.11;118132;1198;21839;-80
2021/08/31 01:53:48;;;;;;;7.70;7.00;;;;;;;15.89;81.08;99862.99;118049;1198;21860;-80
2021/08/31 01:56:17;;;;;;;7.10;6.50;;;;;;;15.87;81.17;99853.79;118142;1195;21781;-80
2021/08/31 01:58:46;;;;;;;7.50;6.90;;;;;;;15.83;81.15;99847.14;118198;1199;21779;-80
2021/08/31 02:01:16;;;;;;;7.60;6.70;;;;;;;15.83;81.19;99845.52;117981;1197;21810;-79
2021/08/31 02:03:45;;;;;;;6.30;5.80;;;;;;;15.84;81.18;99845.27;118262;1194;21814;-79
2021/08/31 02:06:14;;;;;;;6.30;5.70;;;;;;;15.84;81.09;99842.82;118195;1196;22187;-79
2021/08/31 02:08:43;;;;;;;4.90;4.50;;;;;;;15.80;81.04;99836.78;117930;1197;21862;-80
2021/08/31 02:11:12;;;;;;;5.60;5.10;;;;;;;15.76;80.94;99837.51;117817;1200;22256;-80
2021/08/31 02:13:41;;;;;;;5.20;4.80;;;;;;;15.73;81.03;99836.63;117943;1200;21893;-79
2021/08/31 02:16:10;;;;;;;5.90;5.40;;;;;;;15.73;81.06;99833.30;117446;1198;21868;-80
2021/08/31 02:18:40;;;;;;;6.20;5.50;;;;;;;15.71;80.96;99830.33;118197;1195;21801;-80
2021/08/31 02:21:10;;;;;;;6.80;6.20;;;;;;;15.70;80.85;99833.81;118077;1195;21827;-81
2021/08/31 02:23:39;;;;;;;6.10;5.50;;;;;;;15.68;80.94;99829.83;118118;1195;21880;-80
2021/08/31 02:26:08;;;;;;;7.10;6.10;;;;;;;15.65;80.97;99830.30;118141;1195;21853;-80
2021/08/31 02:28:37;;;;;;;4.70;4.30;;;;;;;15.64;81.02;99827.23;118333;1190;22527;-80
2021/08/31 02:31:06;;;;;;;4.80;4.30;;;;;;;15.64;80.99;99826.52;118340;1194;22122;-80
2021/08/31 02:33:36;;;;;;;5.00;4.40;;;;;;;15.64;80.93;99822.05;118399;1195;21800;-80
2021/08/31 02:36:05;;;;;;;5.10;4.70;;;;;;;15.64;80.93;99821.31;118330;1192;22064;-80
2021/08/31 02:38:33;;;;;;;4.20;3.80;;;;;;;15.59;80.90;99815.21;118328;1192;21863;-80
2021/08/31 02:41:03;;;;;;;5.30;4.80;;;;;;;15.59;80.97;99813.73;118137;1194;22239;-80
2021/08/31 02:43:32;;;;;;;4.60;4.20;;;;;;;15.56;80.99;99812.89;118141;1194;21861;-80
2021/08/31 02:46:00;;;;;;;6.00;5.50;;;;;;;15.55;81.02;99811.42;118208;1195;22186;-80
2021/08/31 02:48:29;;;;;;;4.90;4.50;;;;;;;15.58;80.98;99812.67;118134;1198;21874;-80
2021/08/31 02:50:59;;;;;;;4.70;4.30;;;;;;;15.54;81.04;99811.67;118168;1195;21791;-80
2021/08/31 02:53:28;;;;;;;4.90;4.50;;;;;;;15.56;81.12;99813.58;118164;1194;21847;-80
2021/08/31 02:55:57;;;;;;;5.90;5.40;;;;;;;15.58;81.16;99815.17;118131;1195;21842;-81
2021/08/31 02:58:26;;;;;;;5.80;5.20;;;;;;;15.57;81.12;99813.02;118001;1192;21932;-81
2021/08/31 03:01:29;;;;;;;4.80;4.30;;;;;;;15.54;81.04;99815.16;118207;1193;21797;-81
2021/08/31 03:03:46;;;;;;;5.40;4.90;;;;;;;15.51;81.15;99812.95;118270;1195;21770;-80
2021/08/31 03:06:15;;;;;;;5.40;4.90;;;;;;;15.50;81.25;99815.50;118276;1192;22197;-80
2021/08/31 03:08:44;;;;;;;5.70;5.20;;;;;;;15.53;81.30;99819.70;118225;1192;21787;-80
2021/08/31 03:11:13;;;;;;;5.80;5.40;;;;;;;15.54;81.41;99821.33;118291;1192;21860;-80
2021/08/31 03:13:43;;;;;;;7.80;5.80;;;;;;;15.51;81.37;99815.34;118295;1192;22179;-80
2021/08/31 03:16:13;;;;;;;6.10;5.50;;;;;;;15.51;81.30;99816.40;118059;1199;22251;-81
2021/08/31 03:18:42;;;;;;;6.30;5.80;;;;;;;15.51;81.38;99817.67;118073;1199;21871;-80
2021/08/31 03:21:11;;;;;;;6.30;5.70;;;;;;;15.53;81.45;99820.80;117948;1198;22177;-80
2021/08/31 03:23:41;;;;;;;6.90;5.70;;;;;;;15.54;81.49;99821.83;117970;1199;21866;-80
2021/08/31 03:26:10;;;;;;;6.60;6.00;;;;;;;15.51;81.41;99817.13;118030;1198;21807;-80
2021/08/31 03:28:39;;;;;;;5.80;5.30;;;;;;;15.49;81.57;99817.10;118051;1195;22112;-80
2021/08/31 03:31:08;;;;;;;6.00;5.50;;;;;;;15.50;81.65;99814.88;117260;1200;21843;-81
2021/08/31 03:33:37;;;;;;;5.90;5.40;;;;;;;15.51;81.67;99815.54;117143;1200;21839;-80
2021/08/31 03:36:06;;;;;;;6.20;5.70;;;;;;;15.51;81.70;99812.71;117877;1200;21808;-80
2021/08/31 03:38:39;;;;;;;5.90;5.50;;;;;;;15.51;81.73;99811.39;117922;1200;21875;-80
2021/08/31 03:41:08;;;;;;;6.60;6.00;;;;;;;15.55;81.69;99819.13;117892;1198;21842;-80
2021/08/31 03:43:40;;;;;;;6.30;5.80;;;;;;;15.52;81.76;99816.19;117486;1200;22150;-81
2021/08/31 03:46:08;;;;;;;5.70;5.20;;;;;;;15.50;81.87;99806.54;117922;1197;21787;-80
2021/08/31 03:48:38;;;;;;;5.90;5.40;;;;;;;15.52;81.90;99808.13;117948;1198;21827;-80
2021/08/31 03:51:07;;;;;;;6.30;5.70;;;;;;;15.52;81.95;99809.67;118028;1192;22376;-81
2021/08/31 03:53:36;;;;;;;6.20;5.50;;;;;;;15.54;82.02;99816.50;118231;1195;21732;-80
2021/08/31 03:56:05;;;;;;;5.90;5.30;;;;;;;15.53;82.03;99811.17;118267;1192;21803;-82
2021/08/31 03:58:35;;;;;;;5.10;4.60;;;;;;;15.54;82.00;99812.13;118317;1192;21843;-80
2021/08/31 04:01:04;;;;;;;5.50;5.10;;;;;;;15.53;82.06;99812.89;118242;1192;21804;-79
2021/08/31 04:03:33;;;;;;;6.20;4.70;;;;;;;15.56;82.12;99819.08;118252;1193;21769;-80
2021/08/31 04:06:03;;;;;;;5.70;5.20;;;;;;;15.55;82.08;99816.30;118194;1196;21837;-79
2021/08/31 04:08:31;;;;;;;5.20;4.70;;;;;;;15.52;82.12;99814.58;118043;1196;21808;-79
2021/08/31 04:11:00;;;;;;;5.20;4.80;;;;;;;15.53;82.26;99813.96;117962;1198;21790;-80
2021/08/31 04:13:31;;;;;;;5.60;5.20;;;;;;;15.55;82.33;99813.92;118000;1195;21746;-81
2021/08/31 04:16:00;;;;;;;6.30;5.80;;;;;;;15.57;82.32;99813.83;117998;1198;21853;-80
2021/08/31 04:18:29;;;;;;;6.00;5.60;;;;;;;15.60;82.40;99817.48;118035;1197;21808;-81
2021/08/31 04:20:58;;;;;;;8.20;5.80;;;;;;;15.59;82.35;99815.89;117924;1195;21871;-80
2021/08/31 04:23:27;;;;;;;7.90;6.60;;;;;;;15.59;82.33;99815.70;117940;1194;21771;-79
2021/08/31 04:25:56;;;;;;;7.70;7.10;;;;;;;15.59;82.42;99815.83;118010;1196;22305;-80
2021/08/31 04:28:25;;;;;;;7.80;7.10;;;;;;;15.59;82.48;99816.55;118188;1196;22141;-81
2021/08/31 04:30:54;;;;;;;7.50;6.90;;;;;;;15.62;82.55;99823.48;118306;1194;22036;-80
2021/08/31 04:33:23;;;;;;;9.20;8.30;;;;;;;15.63;82.63;99823.05;118292;1192;21822;-80
2021/08/31 04:35:52;;;;;;;10.30;9.20;;;;;;;15.66;82.76;99826.12;118286;1192;21812;-80
2021/08/31 04:38:21;;;;;;;10.40;9.60;;;;;;;15.72;82.77;99828.64;118237;1192;21693;-80
2021/08/31 04:40:50;;;;;;;10.10;9.30;;;;;;;15.74;82.80;99825.67;118337;1192;21843;-81
2021/08/31 04:43:21;;;;;;;10.90;9.90;;;;;;;15.78;82.86;99828.93;118340;1191;21697;-80
2021/08/31 04:45:50;;;;;;;12.10;10.70;;;;;;;15.84;82.81;99833.69;118315;1195;21844;-81
2021/08/31 04:48:19;;;;;;;11.00;9.70;;;;;;;15.88;82.87;99839.60;118315;1194;22252;-80
2021/08/31 04:50:48;;;;;;;11.90;10.00;;;;;;;15.89;82.88;99834.10;118310;1194;21797;-80
2021/08/31 04:53:17;;;;;;;9.30;8.50;;;;;;;15.91;82.87;99836.95;118283;1195;21730;-82
2021/08/31 04:55:47;;;;;;;10.00;9.20;;;;;;;15.92;82.95;99832.52;118168;1197;21868;-81
2021/08/31 04:58:16;;;;;;;10.40;9.50;;;;;;;15.96;82.96;99832.16;118175;1194;22130;-80
2021/08/31 05:00:45;;;;;;;10.10;9.20;;;;;;;15.98;82.94;99830.23;118165;1194;22344;-81
2021/08/31 05:03:15;;;;;;;10.70;9.20;;;;;;;16.01;82.93;99835.54;117888;1200;22209;-80
2021/08/31 05:05:44;;;;;;;10.90;9.90;;;;;;;16.07;82.93;99840.46;117165;1201;21784;-80
2021/08/31 05:08:13;;;;;;;9.60;8.80;;;;;;;16.07;82.93;99840.75;117285;1203;21723;-80
2021/08/31 05:10:42;;;;;;;12.80;10.10;;;;;;;16.08;82.90;99841.67;117285;1196;21809;-81
2021/08/31 05:13:11;;;;;;;10.70;9.70;;;;;;;16.10;82.87;99844.98;117175;1201;21825;-79
2021/08/31 05:15:41;;;;;;;13.20;11.10;;;;;;;16.12;82.84;99849.17;117890;1198;21862;-80
2021/08/31 05:18:10;;;;;;;12.00;11.00;;;;;;;16.17;82.81;99862.13;117585;1200;21808;-79
2021/08/31 05:20:39;;;;;;;10.50;9.60;;;;;;;16.18;82.87;99860.50;117383;1199;22121;-79
2021/08/31 05:23:08;;;;;;;10.50;9.60;;;;;;;16.19;82.77;99859.84;118140;1195;21847;-79
2021/08/31 05:25:38;;;;;;;11.60;10.50;;;;;;;16.18;82.76;99859.61;118334;1191;21943;-79
2021/08/31 05:28:07;;;;;;;11.10;10.00;;;;;;;16.20;82.81;99859.87;118018;1198;21846;-79
2021/08/31 05:30:36;;;;;;;11.60;10.50;;;;;;;16.22;82.80;99859.73;118079;1195;21803;-80
2021/08/31 05:33:06;;;;;;;10.60;9.50;;;;;;;16.24;82.75;99861.94;117976;1198;21779;-79
2021/08/31 05:35:35;;;;;;;10.30;9.30;;;;;;;16.25;82.66;99863.24;118101;1195;21870;-79
2021/08/31 05:38:04;;;;;;;11.80;10.50;;;;;;;16.29;82.66;99868.95;118105;1198;21829;-79
2021/08/31 05:40:34;;;;;;;11.80;9.40;;;;;;;16.31;82.55;99871.56;117720;1194;21848;-79
2021/08/31 05:43:03;;;;;;;10.10;9.20;;;;;;;16.32;82.50;99873.06;118158;1195;21875;-80
2021/08/31 05:45:33;;;;;;;11.80;10.80;;;;;;;16.31;82.37;99875.00;118169;1191;21751;-80
2021/08/31 05:48:03;;;;;;;13.20;11.50;;;;;;;16.30;82.55;99872.69;118385;1191;21838;-81
2021/08/31 05:50:33;;;;;;;11.80;10.50;;;;;;;16.30;82.51;99873.05;118280;1194;21804;-81
2021/08/31 05:53:03;;;;;;;10.00;9.10;;;;;;;16.33;82.49;99876.02;118313;1194;21814;-81
2021/08/31 05:55:32;;;;;;;10.00;9.10;;;;;;;16.36;82.50;99877.06;118231;1194;21770;-81
2021/08/31 05:58:01;;;;;;;9.70;8.90;;;;;;;16.41;82.32;99882.35;118400;1191;21803;-80
2021/08/31 06:00:30;;;;;;;9.90;9.00;;;;;;;16.42;82.35;99882.22;118319;1192;21709;-80
2021/08/31 06:02:59;;;;;;;13.10;9.10;;;;;;;16.44;82.26;99882.61;118232;1195;21789;-80
2021/08/31 06:05:29;;;;;;;8.90;8.10;;;;;;;16.45;82.21;99883.88;118378;1190;22254;-80
2021/08/31 06:07:58;;;;;;;10.30;9.40;;;;;;;16.46;82.10;99884.98;118316;1192;21792;-80
2021/08/31 06:10:27;;;;;;;8.70;7.90;;;;;;;16.49;82.26;99885.03;118317;1194;21809;-80
2021/08/31 06:13:00;;;;;;;10.10;9.20;;;;;;;16.51;82.18;99875.95;118291;1195;22168;-79
2021/08/31 06:15:29;;;;;;;10.10;9.20;;;;;;;16.52;82.06;99871.48;118390;1194;21793;-80
2021/08/31 06:17:58;;;;;;;9.80;8.90;;;;;;;16.57;82.11;99874.80;118367;1193;21812;-80
2021/08/31 06:20:31;;;;;;;10.60;8.50;;;;;;;16.60;82.21;99873.90;118376;1191;21845;-80
2021/08/31 06:23:00;;;;;;;10.70;7.20;;;;;;;16.63;82.12;99874.38;118405;1193;21787;-80
2021/08/31 06:25:29;;;;;;;8.60;6.70;;;;;;;16.64;82.14;99865.70;118384;1188;21803;-79
2021/08/31 06:27:58;;;;;;;7.20;5.70;;;;;;;16.70;82.09;99861.67;118263;1193;22273;-79
2021/08/31 06:30:27;;;;;;;5.80;5.40;;;;;;;16.72;82.13;99863.20;118291;1192;21808;-79
2021/08/31 06:32:56;;;;;;;5.60;5.10;;;;;;;16.74;81.99;99863.30;118416;1190;22102;-79
2021/08/31 06:35:25;;;;;;;4.80;4.10;;;;;;;16.74;81.87;99863.55;118421;1194;21813;-79
2021/08/31 06:37:54;;;;;;;4.60;4.20;;;;;;;16.76;81.74;99869.52;118369;1191;21805;-79
2021/08/31 06:40:24;;;;;;;4.70;3.90;;;;;;;16.76;81.59;99874.14;118138;1194;21818;-78
2021/08/31 06:42:53;;;;;;;4.00;3.70;;;;;;;16.76;81.59;99873.95;118254;1196;22332;-79
2021/08/31 06:45:22;;;;;;;6.20;4.30;;;;;;;16.81;81.57;99881.57;118193;1194;21827;-79
2021/08/31 06:47:51;;;;;;;6.60;4.10;;;;;;;16.81;81.49;99875.42;118184;1194;22218;-79
2021/08/31 06:50:20;;;;;;;3.90;3.50;;;;;;;16.80;81.38;99872.08;118193;1193;21775;-79
2021/08/31 06:52:49;;;;;;;5.20;4.70;;;;;;;16.80;81.33;99874.66;118173;1195;21839;-79
2021/08/31 06:55:19;;;;;;;4.50;4.10;;;;;;;16.82;81.38;99876.81;118190;1190;21862;-77
2021/08/31 06:57:48;;;;;;;4.90;3.80;;;;;;;16.82;81.31;99877.34;118254;1191;21830;-78
2021/08/31 07:00:17;;;;;;;5.30;4.30;;;;;;;16.83;81.32;99877.05;118402;1192;21729;-78
2021/08/31 07:02:47;;;;;;;3.40;3.10;;;;;;;16.86;81.24;99882.36;118384;1193;21778;-79
2021/08/31 07:05:16;;;;;;;5.00;3.70;;;;;;;16.85;81.23;99884.99;118316;1194;22016;-77
2021/08/31 07:07:45;;;;;;;3.20;2.80;;;;;;;16.84;81.28;99879.17;118319;1192;21875;-78
2021/08/31 07:10:14;;;;;;;3.10;2.80;;;;;;;16.85;81.21;99873.21;118438;1192;21780;-77
2021/08/31 07:12:43;;;;;;;3.70;3.20;;;;;;;16.85;81.15;99872.02;118378;1193;21812;-78
2021/08/31 07:15:12;;;;;;;3.30;3.00;;;;;;;16.85;81.25;99874.98;118336;1195;21814;-78
2021/08/31 07:17:41;;;;;;;3.30;2.80;;;;;;;16.85;81.17;99878.75;118372;1190;21872;-79
2021/08/31 07:20:10;;;;;;;4.00;2.90;;;;;;;16.84;81.07;99885.23;118339;1191;21818;-79
2021/08/31 07:22:39;;;;;;;3.70;3.40;;;;;;;16.84;81.16;99888.98;118391;1190;22137;-79
2021/08/31 07:25:09;;;;;;;3.20;2.90;;;;;;;16.85;81.25;99894.18;118306;1190;22355;-79
2021/08/31 07:27:39;;;;;;;5.30;3.10;;;;;;;16.84;81.10;99885.13;118367;1187;22082;-79
2021/08/31 07:30:09;;;;;;;4.30;3.80;;;;;;;16.83;81.17;99884.67;118268;1191;21772;-79
2021/08/31 07:32:38;;;;;;;3.80;3.50;;;;;;;16.84;81.21;99887.88;118277;1193;21764;-79
2021/08/31 07:35:09;;;;;;;3.30;3.00;;;;;;;16.87;81.27;99894.61;118293;1193;21864;-79
2021/08/31 07:37:38;;;;;;;4.60;3.90;;;;;;;16.85;81.05;99895.70;118338;1194;21818;-79
2021/08/31 07:40:08;;;;;;;6.20;3.40;;;;;;;16.83;81.05;99897.36;118460;1190;22192;-80
2021/08/31 07:42:37;;;;;;;3.80;3.40;;;;;;;16.81;81.06;99888.23;118275;1187;21804;-80
2021/08/31 07:45:09;;;;;;;6.60;3.70;;;;;;;16.79;81.20;99881.08;118350;1194;21819;-79
2021/08/31 07:47:38;;;;;;;3.90;3.00;;;;;;;16.85;81.43;99882.22;118316;1192;21782;-79
2021/08/31 07:50:08;;;;;;;4.40;2.60;;;;;;;16.90;81.65;99889.46;118390;1191;22355;-79
2021/08/31 07:52:38;;;;;;;4.00;2.80;;;;;;;16.95;81.57;99900.05;118353;1193;21827;-80
2021/08/31 07:55:09;;;;;;;3.50;2.20;;;;;;;16.96;81.58;99899.90;118303;1192;21802;-79
2021/08/31 07:57:39;;;;;;;;;;;;;;;17.01;81.54;99913.40;118380;1191;21835;-79
2021/08/31 08:00:12;;;;;;;4.00;2.80;;;;;;;16.95;81.60;99908.77;118327;1191;21822;-78
2021/08/31 08:02:41;;;;;;;10.90;4.20;;;;;;;16.93;81.51;99908.52;118329;1188;21794;-78
2021/08/31 08:05:11;;;;;;;4.30;3.20;;;;;;;16.94;81.33;99913.84;118370;1190;21837;-82
2021/08/31 08:07:40;;;;;;;3.80;3.40;;;;;;;16.97;81.20;99911.27;118267;1191;21851;-81
2021/08/31 08:10:10;;;;;;;4.10;3.20;;;;;;;16.94;81.14;99906.30;118320;1193;21780;-81
2021/08/31 08:12:40;;;;;;;3.60;3.30;;;;;;;16.97;81.02;99914.60;118390;1191;22093;-81
2021/08/31 08:15:10;;;;;;;4.00;3.20;;;;;;;16.94;80.88;99901.73;118265;1192;21851;-81
2021/08/31 08:17:39;;;;;;;3.30;3.00;;;;;;;16.95;80.96;99906.44;118250;1193;22042;-80
2021/08/31 08:20:10;;;;;;;6.00;5.40;;;;;;;16.97;80.99;99902.48;118355;1191;21809;-80
2021/08/31 08:22:40;;;;;;;;;;;;;;;16.98;80.78;99910.68;118371;1191;21812;-79
2021/08/31 08:25:10;;;;;;;4.10;3.60;;;;;;;16.89;80.84;99916.23;118388;1191;21764;-79
2021/08/31 08:27:40;;;;;;;4.70;3.60;;;;;;;16.87;80.77;99921.23;118295;1193;21828;-79
2021/08/31 08:30:10;;;;;;;4.70;3.90;;;;;;;16.88;80.79;99925.32;118202;1194;21954;-78
2021/08/31 08:32:40;;;;;;;4.40;3.60;;;;;;;16.91;80.75;99928.56;118344;1191;21836;-78
2021/08/31 08:35:12;;;;;;;5.50;5.00;;;;;;;16.88;80.57;99925.64;118301;1193;21799;-80
2021/08/31 08:37:41;;;;;;;6.20;4.50;;;;;;;16.87;80.66;99926.85;118313;1190;21809;-78
2021/08/31 08:40:10;;;;;;;4.70;4.20;;;;;;;16.89;80.59;99929.73;118413;1190;21815;-78
2021/08/31 08:42:40;;;;;;;5.20;4.60;;;;;;;16.88;80.53;99931.05;118386;1191;22493;-79
2021/08/31 08:45:10;;;;;;;4.90;4.50;;;;;;;16.86;80.46;99928.73;118432;1190;21803;-80
2021/08/31 08:47:39;;;;;;;5.50;5.00;;;;;;;16.85;80.45;99932.65;118252;1193;21804;-80
2021/08/31 08:50:09;;;;;;;5.40;4.90;;;;;;;16.84;80.49;99930.68;118281;1194;21780;-80
2021/08/31 08:52:39;;;;;;;4.80;4.40;;;;;;;16.85;80.68;99931.27;118301;1192;21806;-79
2021/08/31 08:55:11;;;;;;;5.50;4.30;;;;;;;16.82;80.64;99931.44;118196;1193;22306;-79
2021/08/31 08:57:40;;;;;;;4.90;4.40;;;;;;;16.82;80.55;99938.00;118014;1195;21814;-80
2021/08/31 09:00:12;;;;;;;4.10;3.70;;;;;;;16.78;80.73;99936.90;117634;1196;21842;-81
2021/08/31 09:02:44;;;;;;;6.20;4.00;;;;;;;16.76;80.74;99940.30;117854;1194;21731;-80
2021/08/31 09:05:33;;;;;;;4.60;4.10;;;;;;;16.74;80.91;99942.20;117747;1198;22050;-80
2021/08/31 09:08:06;;;;;;;5.60;4.90;;;;;;;16.72;80.94;99940.28;117402;1197;21842;-80
2021/08/31 09:10:36;;;;;;;5.00;4.60;;;;;;;16.71;81.00;99948.33;117501;1198;21813;-79
2021/08/31 09:13:05;;;;;;;5.10;4.60;;;;;;;16.71;81.07;99952.52;117854;1194;21809;-80
2021/08/31 09:15:41;;;;;;;6.50;5.40;;;;;;;16.69;81.21;99941.70;118009;1197;21902;-79
2021/08/31 09:18:15;;;;;;;7.80;7.10;;;;;;;16.67;81.20;99935.73;118110;1195;21813;-79
2021/08/31 09:21:01;;;;;;;8.30;7.60;;;;;;;16.63;81.24;99933.73;118306;1193;21849;-82
2021/08/31 09:23:35;;;;;;;8.90;8.00;;;;;;;16.60;81.34;99932.94;118079;1191;22202;-80
2021/08/31 09:26:11;;;;;;;8.90;8.20;;;;;;;16.60;81.53;99929.95;118009;1193;21774;-79
2021/08/31 09:28:42;;;;;;;9.20;8.40;;;;;;;16.59;81.68;99925.88;118108;1194;22299;-79
2021/08/31 09:31:19;;;;;;;10.40;9.50;;;;;;;16.56;81.65;99919.83;118031;1196;21855;-81
2021/08/31 09:33:52;;;;;;;11.00;9.90;;;;;;;16.57;81.83;99918.45;118212;1196;22416;-80
2021/08/31 09:36:24;;;;;;;13.80;9.30;;;;;;;16.64;81.83;99929.96;117517;1199;21856;-80
2021/08/31 09:38:57;;;;;;;10.70;9.70;;;;;;;16.59;81.85;99931.51;117583;1194;21744;-79
2021/08/31 09:41:44;;;;;;;10.30;9.40;;;;;;;16.60;81.82;99938.16;117411;1200;21867;-79
2021/08/31 09:44:23;;;;;;;10.90;9.90;;;;;;;16.62;81.75;99951.02;117942;1198;21719;-79
2021/08/31 09:47:01;;;;;;;13.00;11.70;;;;;;;16.59;81.63;99955.39;117954;1198;21853;-79
2021/08/31 09:49:31;;;;;;;14.00;12.70;;;;;;;16.57;81.83;99959.05;117967;1196;22218;-79
2021/08/31 09:52:13;;;;;;;16.00;14.50;;;;;;;16.55;81.83;99955.22;118038;1195;21790;-79
2021/08/31 09:54:42;;;;;;;13.50;12.30;;;;;;;16.55;81.84;99955.90;118051;1196;21850;-79
2021/08/31 09:57:48;;;;;;;13.60;12.20;;;;;;;16.54;81.83;99955.34;118132;1195;22314;-78
2021/08/31 10:00:19;;;;;;;11.40;10.30;;;;;;;16.54;81.82;99956.63;117396;1197;21786;-79
2021/08/31 10:02:48;;;;;;;13.10;10.50;;;;;;;16.55;81.94;99959.69;117762;1200;21860;-79
2021/08/31 10:05:17;;;;;;;13.90;11.10;;;;;;;16.56;82.00;99955.46;117470;1198;21829;-81
2021/08/31 10:07:47;;;;;;;10.70;9.70;;;;;;;16.57;82.08;99954.34;117371;1200;21869;-77
2021/08/31 10:10:16;;;;;;;10.30;9.40;;;;;;;16.63;82.12;99962.41;117319;1199;21789;-78
2021/08/31 10:12:50;;;;;;;8.30;7.50;;;;;;;16.65;82.00;99963.71;117476;1198;21816;-79
2021/08/31 10:15:22;;;;;;;8.00;7.30;;;;;;;16.65;82.06;99965.64;117547;1198;21824;-78
2021/08/31 10:17:53;;;;;;;7.50;6.60;;;;;;;16.66;82.04;99968.84;117998;1198;21796;-79
2021/08/31 10:21:37;;;;;;;11.90;10.90;;;;;;;16.67;82.04;99969.13;118081;1198;22139;-79
2021/08/31 10:24:06;;;;;;;8.00;7.30;;;;;;;16.64;82.17;99966.84;118119;1196;21888;-78
2021/08/31 10:26:37;;;;;;;8.60;7.10;;;;;;;16.65;82.27;99968.84;118194;1195;21783;-80
2021/08/31 10:29:15;;;;;;;9.20;8.00;;;;;;;16.67;82.19;99976.34;117797;1200;21831;-79
2021/08/31 10:31:59;;;;;;;8.20;7.40;;;;;;;16.69;82.18;99983.83;117245;1200;21800;-79
2021/08/31 10:34:31;;;;;;;9.00;8.20;;;;;;;16.68;82.05;99985.56;116989;1200;21905;-79
2021/08/31 10:37:08;;;;;;;6.90;6.30;;;;;;;16.69;82.14;99984.36;118000;1199;21789;-79
2021/08/31 10:39:53;;;;;;;9.40;8.30;;;;;;;16.67;81.94;99988.27;117974;1200;21811;-78
2021/08/31 10:42:25;;;;;;;9.80;8.90;;;;;;;16.63;81.81;99995.20;117872;1199;21789;-79
2021/08/31 10:45:01;;;;;;;;;;;;;;;16.57;81.92;99992.78;117988;1199;21875;-78
2021/08/31 10:47:37;;;;;;;18.50;16.70;;;;;;;16.48;82.09;99999.49;118063;1197;21826;-79
2021/08/31 10:50:08;;;;;;;14.40;12.90;;;;;;;16.45;82.30;100001.88;118162;1193;21777;-78
2021/08/31 10:52:50;;;;;;;13.00;11.90;;;;;;;16.45;82.37;100002.61;118199;1194;21845;-78
2021/08/31 10:55:23;;;;;;;15.10;13.60;;;;;;;16.41;82.41;99997.02;118075;1196;21856;-78
2021/08/31 10:57:58;;;;;;;11.60;10.40;;;;;;;16.40;82.60;100000.23;118207;1193;21817;-78
2021/08/31 11:00:28;;;;;;;14.30;13.00;;;;;;;16.43;82.71;99998.33;118179;1194;21838;-78
2021/08/31 11:02:59;;;;;;;15.60;14.00;;;;;;;16.47;82.78;100002.64;118230;1193;21801;-79
2021/08/31 11:05:33;;;;;;;12.70;11.40;;;;;;;16.50;82.96;100006.21;118249;1192;22183;-78
2021/08/31 11:08:02;;;;;;;12.00;10.40;;;;;;;16.49;83.04;100005.22;118386;1192;22196;-79
2021/08/31 11:10:37;;;;;;;10.60;9.70;;;;;;;16.54;83.09;100009.48;118417;1190;21828;-78
2021/08/31 11:13:18;;;;;;;10.40;9.40;;;;;;;16.56;83.11;100009.08;118272;1193;21785;-80
2021/08/31 11:15:49;;;;;;;12.80;10.20;;;;;;;16.62;83.27;100018.59;118312;1195;21832;-79
2021/08/31 11:18:21;;;;;;;10.60;9.50;;;;;;;16.62;83.32;100013.10;118221;1194;21846;-79
2021/08/31 11:20:50;;;;;;;9.30;8.20;;;;;;;16.64;83.20;100019.41;118267;1193;21809;-78
2021/08/31 11:23:22;;;;;;;8.50;7.70;;;;;;;16.62;83.23;100014.23;118321;1192;21799;-78
2021/08/31 11:25:55;;;;;;;;;;;;;;;16.65;83.24;100018.08;118163;1193;21859;-79
2021/08/31 11:28:30;;;;;;;8.00;7.30;;;;;;;16.61;83.33;100023.16;118202;1194;21818;-78
2021/08/31 11:31:02;;;;;;;8.00;7.20;;;;;;;16.58;83.41;100016.98;118213;1196;21828;-78
2021/08/31 11:33:40;;;;;;;8.70;7.10;;;;;;;16.62;83.37;100024.34;118212;1196;22226;-78
2021/08/31 11:36:14;;;;;;;8.00;7.20;;;;;;;16.63;83.30;100022.69;118190;1193;22213;-78
2021/08/31 11:38:58;;;;;;;8.40;7.70;;;;;;;16.63;83.20;100027.20;118219;1196;21918;-78